sensor_id;sensor_type;location;lat;lon;timestamp;temperature;humidity
62991;DHT22;49084;48.204;16.202;2022-08-02T00:01:40;20.10;99.90
62991;DHT22;49084;48.204;16.202;2022-08-02T00:04:06;20.10;99.90
62991;DHT22;49084;48.204;16.202;2022-08-02T00:06:32;20.00;99.90
62991;DHT22;49084;48.204;16.202;2022-08-02T00:08:58;20.00;99.90
62991;DHT22;49084;48.204;16.202;2022-08-02T00:11:24;20.00;99.90
62991;DHT22;49084;48.204;16.202;2022-08-02T00:13:50;20.00;99.90
62991;DHT22;49084;48.204;16.202;2022-08-02T00:16:15;20.00;99.90
62991;DHT22;49084;48.204;16.202;2022-08-02T00:18:42;20.00;99.90
62991;DHT22;49084;48.204;16.202;2022-08-02T00:21:08;19.90;99.90
62991;DHT22;49084;48.204;16.202;2022-08-02T00:23:33;19.90;99.90
62991;DHT22;49084;48.204;16.202;2022-08-02T00:25:59;19.80;99.90
62991;DHT22;49084;48.204;16.202;2022-08-02T00:28:25;19.80;99.90
62991;DHT22;49084;48.204;16.202;2022-08-02T00:30:51;19.70;99.90
62991;DHT22;49084;48.204;16.202;2022-08-02T00:33:16;19.70;99.90
62991;DHT22;49084;48.204;16.202;2022-08-02T00:35:42;19.60;99.90
62991;DHT22;49084;48.204;16.202;2022-08-02T00:38:08;19.60;99.90
62991;DHT22;49084;48.204;16.202;2022-08-02T00:40:33;19.60;99.90
62991;DHT22;49084;48.204;16.202;2022-08-02T00:43:04;19.60;99.90
62991;DHT22;49084;48.204;16.202;2022-08-02T00:45:32;19.60;99.90
62991;DHT22;49084;48.204;16.202;2022-08-02T00:47:58;19.60;99.90
62991;DHT22;49084;48.204;16.202;2022-08-02T00:50:24;19.50;99.90
62991;DHT22;49084;48.204;16.202;2022-08-02T00:52:50;19.50;99.90
62991;DHT22;49084;48.204;16.202;2022-08-02T00:55:16;19.50;99.90
62991;DHT22;49084;48.204;16.202;2022-08-02T00:57:41;19.40;99.90
62991;DHT22;49084;48.204;16.202;2022-08-02T01:00:07;19.40;99.90
62991;DHT22;49084;48.204;16.202;2022-08-02T01:02:34;19.40;99.90
62991;DHT22;49084;48.204;16.202;2022-08-02T01:04:59;19.30;99.90
62991;DHT22;49084;48.204;16.202;2022-08-02T01:07:25;19.30;99.90
62991;DHT22;49084;48.204;16.202;2022-08-02T01:09:52;19.30;99.90
62991;DHT22;49084;48.204;16.202;2022-08-02T01:12:18;19.30;99.90
62991;DHT22;49084;48.204;16.202;2022-08-02T01:14:47;19.30;99.90
62991;DHT22;49084;48.204;16.202;2022-08-02T01:17:31;19.30;99.90
62991;DHT22;49084;48.204;16.202;2022-08-02T01:20:18;19.30;99.90
62991;DHT22;49084;48.204;16.202;2022-08-02T01:30:54;19.30;99.90
62991;DHT22;49084;48.204;16.202;2022-08-02T01:33:24;19.30;99.90
62991;DHT22;49084;48.204;16.202;2022-08-02T01:35:52;19.30;99.90
62991;DHT22;49084;48.204;16.202;2022-08-02T01:38:25;19.40;99.90
62991;DHT22;49084;48.204;16.202;2022-08-02T01:40:53;19.40;99.90
62991;DHT22;49084;48.204;16.202;2022-08-02T01:43:20;19.40;99.90
62991;DHT22;49084;48.204;16.202;2022-08-02T01:45:47;19.40;99.90
62991;DHT22;49084;48.204;16.202;2022-08-02T01:48:14;19.40;99.90
62991;DHT22;49084;48.204;16.202;2022-08-02T01:50:41;19.40;99.90
62991;DHT22;49084;48.204;16.202;2022-08-02T01:53:08;19.40;99.90
62991;DHT22;49084;48.204;16.202;2022-08-02T01:55:42;19.40;99.90
62991;DHT22;49084;48.204;16.202;2022-08-02T01:58:10;19.40;99.90
62991;DHT22;49084;48.204;16.202;2022-08-02T02:00:39;19.40;99.90
62991;DHT22;49084;48.204;16.202;2022-08-02T02:03:11;19.40;99.90
62991;DHT22;49084;48.204;16.202;2022-08-02T02:05:38;19.40;99.90
62991;DHT22;49084;48.204;16.202;2022-08-02T02:08:06;19.40;99.90
62991;DHT22;49084;48.204;16.202;2022-08-02T02:10:35;19.30;99.90
62991;DHT22;49084;48.204;16.202;2022-08-02T02:13:06;19.30;99.90
62991;DHT22;49084;48.204;16.202;2022-08-02T02:15:33;19.30;99.90
62991;DHT22;49084;48.204;16.202;2022-08-02T02:18:01;19.20;99.90
62991;DHT22;49084;48.204;16.202;2022-08-02T02:20:27;19.20;99.90
62991;DHT22;49084;48.204;16.202;2022-08-02T02:22:53;19.20;99.90
62991;DHT22;49084;48.204;16.202;2022-08-02T02:25:20;19.20;99.90
62991;DHT22;49084;48.204;16.202;2022-08-02T02:28:06;19.20;99.90
62991;DHT22;49084;48.204;16.202;2022-08-02T02:30:32;19.20;99.90
62991;DHT22;49084;48.204;16.202;2022-08-02T02:33:01;19.10;99.90
62991;DHT22;49084;48.204;16.202;2022-08-02T02:35:29;19.10;99.90
62991;DHT22;49084;48.204;16.202;2022-08-02T02:37:57;19.00;99.90
62991;DHT22;49084;48.204;16.202;2022-08-02T02:40:23;19.00;99.90
62991;DHT22;49084;48.204;16.202;2022-08-02T02:42:51;18.90;99.90
62991;DHT22;49084;48.204;16.202;2022-08-02T02:45:19;18.90;99.90
62991;DHT22;49084;48.204;16.202;2022-08-02T02:47:46;18.80;99.90
62991;DHT22;49084;48.204;16.202;2022-08-02T02:50:15;18.80;99.90
62991;DHT22;49084;48.204;16.202;2022-08-02T02:52:42;18.70;99.90
62991;DHT22;49084;48.204;16.202;2022-08-02T02:55:09;18.60;99.90
62991;DHT22;49084;48.204;16.202;2022-08-02T02:57:36;18.50;99.90
62991;DHT22;49084;48.204;16.202;2022-08-02T03:00:10;18.40;99.90
62991;DHT22;49084;48.204;16.202;2022-08-02T03:02:42;18.40;99.90
62991;DHT22;49084;48.204;16.202;2022-08-02T03:05:09;18.30;99.90
62991;DHT22;49084;48.204;16.202;2022-08-02T03:07:37;18.30;99.90
62991;DHT22;49084;48.204;16.202;2022-08-02T03:10:05;18.20;99.90
62991;DHT22;49084;48.204;16.202;2022-08-02T03:12:32;18.20;99.90
62991;DHT22;49084;48.204;16.202;2022-08-02T03:15:00;18.10;99.90
62991;DHT22;49084;48.204;16.202;2022-08-02T03:17:40;18.00;99.90
62991;DHT22;49084;48.204;16.202;2022-08-02T03:20:13;18.00;99.90
62991;DHT22;49084;48.204;16.202;2022-08-02T03:22:39;18.00;99.90
62991;DHT22;49084;48.204;16.202;2022-08-02T03:25:06;17.90;99.90
62991;DHT22;49084;48.204;16.202;2022-08-02T03:27:32;17.90;99.90
62991;DHT22;49084;48.204;16.202;2022-08-02T03:29:57;17.80;99.90
62991;DHT22;49084;48.204;16.202;2022-08-02T03:32:23;17.80;99.90
62991;DHT22;49084;48.204;16.202;2022-08-02T03:34:49;17.80;99.90
62991;DHT22;49084;48.204;16.202;2022-08-02T03:37:15;17.80;99.90
62991;DHT22;49084;48.204;16.202;2022-08-02T03:39:41;17.90;99.90
62991;DHT22;49084;48.204;16.202;2022-08-02T03:42:08;17.90;99.90
62991;DHT22;49084;48.204;16.202;2022-08-02T03:44:34;17.90;99.90
62991;DHT22;49084;48.204;16.202;2022-08-02T03:47:02;17.80;99.90
62991;DHT22;49084;48.204;16.202;2022-08-02T03:49:28;17.80;99.90
62991;DHT22;49084;48.204;16.202;2022-08-02T03:51:56;17.70;99.90
62991;DHT22;49084;48.204;16.202;2022-08-02T03:54:23;17.80;99.90
62991;DHT22;49084;48.204;16.202;2022-08-02T03:56:49;17.80;99.90
62991;DHT22;49084;48.204;16.202;2022-08-02T03:59:15;17.80;99.90
62991;DHT22;49084;48.204;16.202;2022-08-02T04:01:42;17.90;99.90
62991;DHT22;49084;48.204;16.202;2022-08-02T04:04:08;18.00;99.90
62991;DHT22;49084;48.204;16.202;2022-08-02T04:06:34;18.10;99.90
62991;DHT22;49084;48.204;16.202;2022-08-02T04:09:00;18.20;99.90
62991;DHT22;49084;48.204;16.202;2022-08-02T04:11:25;18.30;99.90
62991;DHT22;49084;48.204;16.202;2022-08-02T04:14:06;18.30;99.90
62991;DHT22;49084;48.204;16.202;2022-08-02T04:19:07;18.40;99.90
62991;DHT22;49084;48.204;16.202;2022-08-02T04:21:38;18.50;99.90
62991;DHT22;49084;48.204;16.202;2022-08-02T04:24:05;18.50;99.90
62991;DHT22;49084;48.204;16.202;2022-08-02T04:26:33;18.60;99.90
62991;DHT22;49084;48.204;16.202;2022-08-02T04:28:59;18.60;99.90
62991;DHT22;49084;48.204;16.202;2022-08-02T04:31:26;18.70;99.90
62991;DHT22;49084;48.204;16.202;2022-08-02T04:33:51;18.70;99.90
62991;DHT22;49084;48.204;16.202;2022-08-02T04:36:18;18.80;99.90
62991;DHT22;49084;48.204;16.202;2022-08-02T04:38:43;18.90;99.90
62991;DHT22;49084;48.204;16.202;2022-08-02T04:41:09;18.90;99.90
62991;DHT22;49084;48.204;16.202;2022-08-02T04:43:35;19.00;99.90
62991;DHT22;49084;48.204;16.202;2022-08-02T04:46:00;19.10;99.90
62991;DHT22;49084;48.204;16.202;2022-08-02T04:48:27;19.10;99.90
62991;DHT22;49084;48.204;16.202;2022-08-02T04:50:53;19.20;99.90
62991;DHT22;49084;48.204;16.202;2022-08-02T04:53:19;19.20;99.90
62991;DHT22;49084;48.204;16.202;2022-08-02T04:55:45;19.30;99.90
62991;DHT22;49084;48.204;16.202;2022-08-02T04:58:12;19.40;99.90
62991;DHT22;49084;48.204;16.202;2022-08-02T05:00:38;19.40;99.90
62991;DHT22;49084;48.204;16.202;2022-08-02T05:03:03;19.60;99.90
62991;DHT22;49084;48.204;16.202;2022-08-02T05:05:29;19.70;99.90
62991;DHT22;49084;48.204;16.202;2022-08-02T05:07:55;19.80;99.90
62991;DHT22;49084;48.204;16.202;2022-08-02T05:10:21;19.90;99.90
62991;DHT22;49084;48.204;16.202;2022-08-02T05:12:47;20.00;99.90
62991;DHT22;49084;48.204;16.202;2022-08-02T05:15:13;20.20;99.90
62991;DHT22;49084;48.204;16.202;2022-08-02T05:17:41;20.30;99.90
62991;DHT22;49084;48.204;16.202;2022-08-02T05:20:07;20.40;99.90
62991;DHT22;49084;48.204;16.202;2022-08-02T05:22:33;20.60;99.90
62991;DHT22;49084;48.204;16.202;2022-08-02T05:24:59;20.70;99.90
62991;DHT22;49084;48.204;16.202;2022-08-02T05:27:24;20.90;99.90
62991;DHT22;49084;48.204;16.202;2022-08-02T05:29:50;21.00;99.90
62991;DHT22;49084;48.204;16.202;2022-08-02T05:32:17;21.10;99.90
62991;DHT22;49084;48.204;16.202;2022-08-02T05:34:43;21.30;99.90
62991;DHT22;49084;48.204;16.202;2022-08-02T05:37:08;21.50;99.90
62991;DHT22;49084;48.204;16.202;2022-08-02T05:39:34;21.60;99.90
62991;DHT22;49084;48.204;16.202;2022-08-02T05:42:00;21.70;99.90
62991;DHT22;49084;48.204;16.202;2022-08-02T05:44:25;21.80;99.90
62991;DHT22;49084;48.204;16.202;2022-08-02T05:46:51;21.90;99.90
62991;DHT22;49084;48.204;16.202;2022-08-02T05:49:17;22.00;99.90
62991;DHT22;49084;48.204;16.202;2022-08-02T05:55:05;22.10;99.90
62991;DHT22;49084;48.204;16.202;2022-08-02T05:57:56;22.10;99.90
62991;DHT22;49084;48.204;16.202;2022-08-02T06:00:31;22.20;99.90
62991;DHT22;49084;48.204;16.202;2022-08-02T06:05:45;22.20;99.90
62991;DHT22;49084;48.204;16.202;2022-08-02T06:08:13;22.20;99.90
62991;DHT22;49084;48.204;16.202;2022-08-02T06:10:39;22.00;99.90
62991;DHT22;49084;48.204;16.202;2022-08-02T06:13:09;21.60;99.90
62991;DHT22;49084;48.204;16.202;2022-08-02T06:15:39;21.90;99.90
62991;DHT22;49084;48.204;16.202;2022-08-02T06:18:06;21.80;99.90
62991;DHT22;49084;48.204;16.202;2022-08-02T06:20:32;21.70;99.90
62991;DHT22;49084;48.204;16.202;2022-08-02T06:23:06;21.70;99.90
62991;DHT22;49084;48.204;16.202;2022-08-02T06:25:34;21.70;99.90
62991;DHT22;49084;48.204;16.202;2022-08-02T06:28:03;21.60;99.90
62991;DHT22;49084;48.204;16.202;2022-08-02T06:30:29;21.60;99.90
62991;DHT22;49084;48.204;16.202;2022-08-02T06:32:55;21.60;99.90
62991;DHT22;49084;48.204;16.202;2022-08-02T06:35:24;21.60;99.90
62991;DHT22;49084;48.204;16.202;2022-08-02T06:37:55;21.50;99.90
62991;DHT22;49084;48.204;16.202;2022-08-02T06:45:39;21.60;99.90
62991;DHT22;49084;48.204;16.202;2022-08-02T06:48:06;21.60;99.90
62991;DHT22;49084;48.204;16.202;2022-08-02T06:50:32;21.60;99.90
62991;DHT22;49084;48.204;16.202;2022-08-02T06:52:58;21.70;99.90
62991;DHT22;49084;48.204;16.202;2022-08-02T06:55:24;21.70;99.90
62991;DHT22;49084;48.204;16.202;2022-08-02T06:57:51;21.70;99.90
62991;DHT22;49084;48.204;16.202;2022-08-02T07:00:17;21.70;99.90
62991;DHT22;49084;48.204;16.202;2022-08-02T07:02:43;21.70;99.90
62991;DHT22;49084;48.204;16.202;2022-08-02T07:05:08;21.70;99.90
62991;DHT22;49084;48.204;16.202;2022-08-02T07:07:34;21.80;99.90
62991;DHT22;49084;48.204;16.202;2022-08-02T07:10:00;21.80;99.90
62991;DHT22;49084;48.204;16.202;2022-08-02T07:12:27;21.90;99.90
62991;DHT22;49084;48.204;16.202;2022-08-02T07:14:53;21.90;99.90
62991;DHT22;49084;48.204;16.202;2022-08-02T07:17:19;21.90;99.90
62991;DHT22;49084;48.204;16.202;2022-08-02T07:19:44;21.90;99.90
62991;DHT22;49084;48.204;16.202;2022-08-02T07:22:10;21.90;99.90
62991;DHT22;49084;48.204;16.202;2022-08-02T07:24:37;22.00;99.90
62991;DHT22;49084;48.204;16.202;2022-08-02T07:27:04;22.00;99.90
62991;DHT22;49084;48.204;16.202;2022-08-02T07:29:30;22.10;99.90
62991;DHT22;49084;48.204;16.202;2022-08-02T07:31:55;22.20;99.90
62991;DHT22;49084;48.204;16.202;2022-08-02T07:34:21;22.20;99.90
62991;DHT22;49084;48.204;16.202;2022-08-02T07:36:46;22.20;99.90
62991;DHT22;49084;48.204;16.202;2022-08-02T07:39:12;22.30;99.90
62991;DHT22;49084;48.204;16.202;2022-08-02T07:41:38;22.30;99.90
62991;DHT22;49084;48.204;16.202;2022-08-02T07:44:04;22.40;99.90
62991;DHT22;49084;48.204;16.202;2022-08-02T07:46:29;22.40;99.90
62991;DHT22;49084;48.204;16.202;2022-08-02T07:48:57;22.50;99.90
62991;DHT22;49084;48.204;16.202;2022-08-02T07:51:23;22.60;99.90
62991;DHT22;49084;48.204;16.202;2022-08-02T07:53:49;22.80;99.90
62991;DHT22;49084;48.204;16.202;2022-08-02T07:56:14;23.10;99.90
62991;DHT22;49084;48.204;16.202;2022-08-02T07:58:40;23.30;99.90
62991;DHT22;49084;48.204;16.202;2022-08-02T08:01:07;23.30;99.90
62991;DHT22;49084;48.204;16.202;2022-08-02T08:03:33;23.40;99.90
62991;DHT22;49084;48.204;16.202;2022-08-02T08:05:59;23.40;99.90
62991;DHT22;49084;48.204;16.202;2022-08-02T08:08:25;23.50;99.90
62991;DHT22;49084;48.204;16.202;2022-08-02T08:10:50;23.50;99.90
62991;DHT22;49084;48.204;16.202;2022-08-02T08:13:16;23.60;99.90
62991;DHT22;49084;48.204;16.202;2022-08-02T08:15:42;23.80;99.90
62991;DHT22;49084;48.204;16.202;2022-08-02T08:18:08;23.80;99.90
62991;DHT22;49084;48.204;16.202;2022-08-02T08:20:34;23.60;99.90
62991;DHT22;49084;48.204;16.202;2022-08-02T08:23:00;23.50;99.90
62991;DHT22;49084;48.204;16.202;2022-08-02T08:25:25;23.50;99.90
62991;DHT22;49084;48.204;16.202;2022-08-02T08:27:51;23.50;99.90
62991;DHT22;49084;48.204;16.202;2022-08-02T08:30:18;23.50;99.90
62991;DHT22;49084;48.204;16.202;2022-08-02T08:32:44;23.50;99.90
62991;DHT22;49084;48.204;16.202;2022-08-02T08:35:10;23.50;99.90
62991;DHT22;49084;48.204;16.202;2022-08-02T08:37:37;23.70;99.90
62991;DHT22;49084;48.204;16.202;2022-08-02T08:40:10;23.90;99.90
62991;DHT22;49084;48.204;16.202;2022-08-02T08:42:38;24.10;99.90
62991;DHT22;49084;48.204;16.202;2022-08-02T08:45:04;24.10;99.90
62991;DHT22;49084;48.204;16.202;2022-08-02T08:47:37;24.20;99.90
62991;DHT22;49084;48.204;16.202;2022-08-02T08:50:05;24.20;99.90
62991;DHT22;49084;48.204;16.202;2022-08-02T08:52:35;24.50;99.90
62991;DHT22;49084;48.204;16.202;2022-08-02T08:55:03;25.10;99.90
62991;DHT22;49084;48.204;16.202;2022-08-02T08:57:29;25.90;99.90
62991;DHT22;49084;48.204;16.202;2022-08-02T08:59:56;26.80;99.90
62991;DHT22;49084;48.204;16.202;2022-08-02T09:02:22;27.60;98.40
62991;DHT22;49084;48.204;16.202;2022-08-02T09:04:49;28.00;97.20
62991;DHT22;49084;48.204;16.202;2022-08-02T09:07:14;28.30;95.70
62991;DHT22;49084;48.204;16.202;2022-08-02T09:09:40;28.60;94.90
62991;DHT22;49084;48.204;16.202;2022-08-02T09:12:16;29.00;93.20
62991;DHT22;49084;48.204;16.202;2022-08-02T09:14:42;29.00;92.60
62991;DHT22;49084;48.204;16.202;2022-08-02T09:17:09;29.10;91.40
62991;DHT22;49084;48.204;16.202;2022-08-02T09:19:37;29.30;90.90
62991;DHT22;49084;48.204;16.202;2022-08-02T09:22:05;29.60;89.50
62991;DHT22;49084;48.204;16.202;2022-08-02T09:24:49;29.90;88.80
62991;DHT22;49084;48.204;16.202;2022-08-02T09:27:21;30.50;86.60
62991;DHT22;49084;48.204;16.202;2022-08-02T09:29:52;31.10;82.10
62991;DHT22;49084;48.204;16.202;2022-08-02T09:32:17;31.00;79.60
62991;DHT22;49084;48.204;16.202;2022-08-02T09:34:51;31.20;78.40
62991;DHT22;49084;48.204;16.202;2022-08-02T09:37:28;31.30;77.20
62991;DHT22;49084;48.204;16.202;2022-08-02T09:39:56;31.30;75.60
62991;DHT22;49084;48.204;16.202;2022-08-02T09:42:23;31.30;75.50
62991;DHT22;49084;48.204;16.202;2022-08-02T09:44:59;31.60;74.40
62991;DHT22;49084;48.204;16.202;2022-08-02T09:47:26;32.20;71.70
62991;DHT22;49084;48.204;16.202;2022-08-02T09:49:54;32.30;70.10
62991;DHT22;49084;48.204;16.202;2022-08-02T09:52:27;32.60;68.90
62991;DHT22;49084;48.204;16.202;2022-08-02T09:54:54;32.90;66.30
62991;DHT22;49084;48.204;16.202;2022-08-02T09:57:27;33.50;64.50
62991;DHT22;49084;48.204;16.202;2022-08-02T09:59:57;33.80;62.90
62991;DHT22;49084;48.204;16.202;2022-08-02T10:02:22;33.70;61.80
62991;DHT22;49084;48.204;16.202;2022-08-02T10:04:48;33.40;61.90
62991;DHT22;49084;48.204;16.202;2022-08-02T10:07:15;32.90;62.80
62991;DHT22;49084;48.204;16.202;2022-08-02T10:09:42;33.10;62.10
62991;DHT22;49084;48.204;16.202;2022-08-02T10:12:11;33.20;60.20
62991;DHT22;49084;48.204;16.202;2022-08-02T10:14:37;33.10;59.50
62991;DHT22;49084;48.204;16.202;2022-08-02T10:17:03;32.50;60.00
62991;DHT22;49084;48.204;16.202;2022-08-02T10:19:32;32.10;60.00
62991;DHT22;49084;48.204;16.202;2022-08-02T10:22:10;32.40;61.30
62991;DHT22;49084;48.204;16.202;2022-08-02T10:24:38;32.90;59.20
62991;DHT22;49084;48.204;16.202;2022-08-02T10:27:06;33.00;57.50
62991;DHT22;49084;48.204;16.202;2022-08-02T10:29:38;32.70;58.60
62991;DHT22;49084;48.204;16.202;2022-08-02T10:32:43;33.20;58.00
62991;DHT22;49084;48.204;16.202;2022-08-02T10:35:17;33.60;56.60
62991;DHT22;49084;48.204;16.202;2022-08-02T10:37:45;33.20;56.30
62991;DHT22;49084;48.204;16.202;2022-08-02T10:40:12;32.90;57.00
62991;DHT22;49084;48.204;16.202;2022-08-02T10:42:54;33.10;57.50
62991;DHT22;49084;48.204;16.202;2022-08-02T10:45:23;33.90;54.80
62991;DHT22;49084;48.204;16.202;2022-08-02T10:48:15;33.60;55.30
62991;DHT22;49084;48.204;16.202;2022-08-02T10:55:51;33.40;56.00
62991;DHT22;49084;48.204;16.202;2022-08-02T10:58:18;33.10;55.90
62991;DHT22;49084;48.204;16.202;2022-08-02T11:00:44;32.80;55.70
62991;DHT22;49084;48.204;16.202;2022-08-02T11:06:08;33.70;58.50
62991;DHT22;49084;48.204;16.202;2022-08-02T11:08:34;35.30;54.70
62991;DHT22;49084;48.204;16.202;2022-08-02T11:14:05;35.70;53.30
62991;DHT22;49084;48.204;16.202;2022-08-02T11:19:24;36.00;52.80
62991;DHT22;49084;48.204;16.202;2022-08-02T11:24:34;36.00;52.20
62991;DHT22;49084;48.204;16.202;2022-08-02T11:27:01;36.40;51.60
62991;DHT22;49084;48.204;16.202;2022-08-02T11:29:38;36.60;51.80
62991;DHT22;49084;48.204;16.202;2022-08-02T11:32:14;36.70;50.30
62991;DHT22;49084;48.204;16.202;2022-08-02T11:34:41;36.20;50.50
62991;DHT22;49084;48.204;16.202;2022-08-02T11:39:33;36.60;49.80
62991;DHT22;49084;48.204;16.202;2022-08-02T11:42:00;36.20;50.60
62991;DHT22;49084;48.204;16.202;2022-08-02T11:44:27;36.90;50.30
62991;DHT22;49084;48.204;16.202;2022-08-02T11:46:57;36.80;49.40
62991;DHT22;49084;48.204;16.202;2022-08-02T11:49:23;36.60;48.60
62991;DHT22;49084;48.204;16.202;2022-08-02T11:52:03;36.50;48.80
62991;DHT22;49084;48.204;16.202;2022-08-02T11:54:41;36.90;48.00
62991;DHT22;49084;48.204;16.202;2022-08-02T11:57:17;36.00;48.70
62991;DHT22;49084;48.204;16.202;2022-08-02T11:59:44;36.40;48.90
62991;DHT22;49084;48.204;16.202;2022-08-02T12:02:11;36.70;48.30
62991;DHT22;49084;48.204;16.202;2022-08-02T12:04:37;37.00;47.10
62991;DHT22;49084;48.204;16.202;2022-08-02T12:07:04;36.90;47.30
62991;DHT22;49084;48.204;16.202;2022-08-02T12:09:32;37.00;46.30
62991;DHT22;49084;48.204;16.202;2022-08-02T12:11:59;37.40;46.20
62991;DHT22;49084;48.204;16.202;2022-08-02T12:14:26;36.80;46.70
62991;DHT22;49084;48.204;16.202;2022-08-02T12:16:53;36.60;47.30
62991;DHT22;49084;48.204;16.202;2022-08-02T12:19:38;36.60;46.60
62991;DHT22;49084;48.204;16.202;2022-08-02T12:22:07;35.40;49.00
62991;DHT22;49084;48.204;16.202;2022-08-02T12:24:35;35.00;49.30
62991;DHT22;49084;48.204;16.202;2022-08-02T12:27:01;34.80;48.70
62991;DHT22;49084;48.204;16.202;2022-08-02T12:29:35;35.10;48.70
62991;DHT22;49084;48.204;16.202;2022-08-02T12:32:01;36.00;47.10
62991;DHT22;49084;48.204;16.202;2022-08-02T12:34:29;34.70;48.50
62991;DHT22;49084;48.204;16.202;2022-08-02T12:37:09;34.40;49.10
62991;DHT22;49084;48.204;16.202;2022-08-02T12:39:40;35.30;48.30
62991;DHT22;49084;48.204;16.202;2022-08-02T12:42:08;35.70;47.30
62991;DHT22;49084;48.204;16.202;2022-08-02T12:44:52;36.00;46.90
62991;DHT22;49084;48.204;16.202;2022-08-02T12:47:19;36.20;44.50
62991;DHT22;49084;48.204;16.202;2022-08-02T12:53:13;36.10;45.40
62991;DHT22;49084;48.204;16.202;2022-08-02T12:55:53;36.70;45.30
62991;DHT22;49084;48.204;16.202;2022-08-02T12:58:20;36.40;43.60
62991;DHT22;49084;48.204;16.202;2022-08-02T13:00:53;36.00;44.30
62991;DHT22;49084;48.204;16.202;2022-08-02T13:03:19;36.20;44.00
62991;DHT22;49084;48.204;16.202;2022-08-02T13:05:45;36.40;45.00
62991;DHT22;49084;48.204;16.202;2022-08-02T13:08:12;37.00;44.70
62991;DHT22;49084;48.204;16.202;2022-08-02T13:10:37;36.70;43.40
62991;DHT22;49084;48.204;16.202;2022-08-02T13:13:04;36.60;44.40
62991;DHT22;49084;48.204;16.202;2022-08-02T13:15:30;35.70;44.70
62991;DHT22;49084;48.204;16.202;2022-08-02T13:17:56;34.80;46.10
62991;DHT22;49084;48.204;16.202;2022-08-02T13:20:24;35.00;46.30
62991;DHT22;49084;48.204;16.202;2022-08-02T13:22:52;35.90;45.80
62991;DHT22;49084;48.204;16.202;2022-08-02T13:25:17;35.60;44.80
62991;DHT22;49084;48.204;16.202;2022-08-02T13:27:47;35.30;44.70
62991;DHT22;49084;48.204;16.202;2022-08-02T13:30:13;35.20;44.90
62991;DHT22;49084;48.204;16.202;2022-08-02T13:32:39;36.00;44.40
62991;DHT22;49084;48.204;16.202;2022-08-02T13:35:05;36.70;43.50
62991;DHT22;49084;48.204;16.202;2022-08-02T13:37:30;37.20;44.40
62991;DHT22;49084;48.204;16.202;2022-08-02T13:39:56;36.90;44.10
62991;DHT22;49084;48.204;16.202;2022-08-02T13:42:22;37.00;44.00
62991;DHT22;49084;48.204;16.202;2022-08-02T13:44:47;37.50;43.90
62991;DHT22;49084;48.204;16.202;2022-08-02T13:47:13;37.90;42.30
62991;DHT22;49084;48.204;16.202;2022-08-02T13:49:39;37.80;42.90
62991;DHT22;49084;48.204;16.202;2022-08-02T13:52:06;38.30;43.20
62991;DHT22;49084;48.204;16.202;2022-08-02T13:54:32;37.80;42.30
62991;DHT22;49084;48.204;16.202;2022-08-02T13:56:58;37.70;42.00
62991;DHT22;49084;48.204;16.202;2022-08-02T13:59:24;37.50;42.60
62991;DHT22;49084;48.204;16.202;2022-08-02T14:01:51;37.20;42.70
62991;DHT22;49084;48.204;16.202;2022-08-02T14:04:17;36.40;43.40
62991;DHT22;49084;48.204;16.202;2022-08-02T14:06:42;36.90;44.00
62991;DHT22;49084;48.204;16.202;2022-08-02T14:09:08;36.70;43.50
62991;DHT22;49084;48.204;16.202;2022-08-02T14:11:34;36.60;43.00
62991;DHT22;49084;48.204;16.202;2022-08-02T14:13:59;36.40;42.80
62991;DHT22;49084;48.204;16.202;2022-08-02T14:16:25;35.20;44.10
62991;DHT22;49084;48.204;16.202;2022-08-02T14:18:50;35.50;44.50
62991;DHT22;49084;48.204;16.202;2022-08-02T14:21:16;36.50;43.30
62991;DHT22;49084;48.204;16.202;2022-08-02T14:23:42;36.90;43.00
62991;DHT22;49084;48.204;16.202;2022-08-02T14:26:07;37.30;41.80
62991;DHT22;49084;48.204;16.202;2022-08-02T14:28:35;37.10;42.50
62991;DHT22;49084;48.204;16.202;2022-08-02T14:31:01;37.40;42.50
62991;DHT22;49084;48.204;16.202;2022-08-02T14:33:27;37.70;40.40
62991;DHT22;49084;48.204;16.202;2022-08-02T14:35:52;36.80;42.30
62991;DHT22;49084;48.204;16.202;2022-08-02T14:38:18;36.70;42.70
62991;DHT22;49084;48.204;16.202;2022-08-02T14:40:45;37.10;42.00
62991;DHT22;49084;48.204;16.202;2022-08-02T14:43:10;36.60;41.90
62991;DHT22;49084;48.204;16.202;2022-08-02T14:45:56;36.30;43.10
62991;DHT22;49084;48.204;16.202;2022-08-02T14:48:22;37.00;43.00
62991;DHT22;49084;48.204;16.202;2022-08-02T14:50:47;36.90;41.70
62991;DHT22;49084;48.204;16.202;2022-08-02T14:53:13;36.60;42.90
62991;DHT22;49084;48.204;16.202;2022-08-02T14:55:39;36.90;42.40
62991;DHT22;49084;48.204;16.202;2022-08-02T14:58:04;36.90;42.80
62991;DHT22;49084;48.204;16.202;2022-08-02T15:00:30;36.90;42.70
62991;DHT22;49084;48.204;16.202;2022-08-02T15:02:56;37.00;41.50
62991;DHT22;49084;48.204;16.202;2022-08-02T15:05:21;36.60;40.80
62991;DHT22;49084;48.204;16.202;2022-08-02T15:07:47;36.10;41.10
62991;DHT22;49084;48.204;16.202;2022-08-02T15:10:13;36.10;42.50
62991;DHT22;49084;48.204;16.202;2022-08-02T15:12:38;35.90;42.00
62991;DHT22;49084;48.204;16.202;2022-08-02T15:15:04;35.60;42.40
62991;DHT22;49084;48.204;16.202;2022-08-02T15:17:30;35.20;42.40
62991;DHT22;49084;48.204;16.202;2022-08-02T15:19:56;35.30;42.70
62991;DHT22;49084;48.204;16.202;2022-08-02T15:22:22;35.80;42.60
62991;DHT22;49084;48.204;16.202;2022-08-02T15:24:48;35.50;43.10
62991;DHT22;49084;48.204;16.202;2022-08-02T15:27:15;35.50;42.60
62991;DHT22;49084;48.204;16.202;2022-08-02T15:29:42;35.30;44.00
62991;DHT22;49084;48.204;16.202;2022-08-02T15:32:08;35.70;44.20
62991;DHT22;49084;48.204;16.202;2022-08-02T15:34:34;35.80;43.60
62991;DHT22;49084;48.204;16.202;2022-08-02T15:36:59;35.90;43.80
62991;DHT22;49084;48.204;16.202;2022-08-02T15:39:25;35.70;43.80
62991;DHT22;49084;48.204;16.202;2022-08-02T15:41:51;35.40;44.00
62991;DHT22;49084;48.204;16.202;2022-08-02T15:44:16;35.10;44.20
62991;DHT22;49084;48.204;16.202;2022-08-02T15:46:42;34.50;44.70
62991;DHT22;49084;48.204;16.202;2022-08-02T15:49:07;34.30;45.60
62991;DHT22;49084;48.204;16.202;2022-08-02T15:51:33;34.30;45.60
62991;DHT22;49084;48.204;16.202;2022-08-02T15:53:59;34.10;46.10
62991;DHT22;49084;48.204;16.202;2022-08-02T15:56:24;34.00;46.70
62991;DHT22;49084;48.204;16.202;2022-08-02T15:58:50;34.10;46.30
62991;DHT22;49084;48.204;16.202;2022-08-02T16:01:16;34.20;45.40
62991;DHT22;49084;48.204;16.202;2022-08-02T16:03:42;34.20;46.10